Hemingford, NE (69348)

12:40 AM MDT on July 23, 2014 (GMT -0600)
Panhandle Coop/Box Butte Co (KNEALLIA3) Elev 4140 ft | 42.22 °N, 102.98 °W | Change Station

Current weather conditions updated 3 minutes ago

Partly Cloudy
Partly Cloudy
69.2 °F
Feels Like 69.2 °F
N
18.0
Wind Variable Wind from ENE
Gusts 23.0 mph

Today is forecast to be nearly the same temperature as yesterday.

Today
High -- | Low -- °F
--% Chance of Precip.
Yesterday
High -- | Low -- °F
Precip. -- in
5:36 AM 8:20 PM
Waning Crescent, 12% visible
Pressure 30.16 in
Visibility 10.0 miles
Clouds Clear
Dew Point 62 °F
Humidity 79%
Rainfall 0.00 in
Snow Depth Not available.
UV 0 out of 12
Pollen 6.20 out of 12
Air Quality Not available.
Flu Activity Not available.
METAR KAIA 230553Z AUTO 11019G25KT 10SM CLR 22/17 A3031 RMK AO2 PK WND 08036/0514 WSHFT 0441 SLP211 T02170167 10333 20206 51020 $

More Conditions Fewer Conditions

Pressure 30.16 in
Visibility 10.0 miles
Clouds Clear
Dew Point 62 °F
Humidity 79%
Rainfall 0.00 in
Snow Depth Not available.
UV 0 out of 12
Pollen 6.20 out of 12
Air Quality Not available.
Flu Activity Not available.
METAR KAIA 230553Z AUTO 11019G25KT 10SM CLR 22/17 A3031 RMK AO2 PK WND 08036/0514 WSHFT 0441 SLP211 T02170167 10333 20206 51020 $

More Conditions Fewer Conditions

10-Day Weather Forecast

Almanac

Astronomy

Jul. 23, 2014 Rise Set
Actual Time 5:36 AM MDT 8:20 PM MDT
Civil Twilight 5:03 AM MDT 8:53 PM MDT
Nautical Twilight 4:22 AM MDT 9:34 PM MDT
Astronomical Twilight 3:34 AM MDT 10:21 PM MDT
Moon 2:57 AM MDT 5:51 PM MDT
Length of Visible Light 15h 50m
Length of Day
14h 44m
Tomorrow will be 1m 51s shorter.
Waning Crescent, 12% of the Moon is Illuminated
Today
Waning Crescent
Jul 26
New
Aug 3
First Quarter
Aug 10
Full
Aug 17
Last Quarter

Today's Extremes

State Highs State Lows

Community

WunderPhotos

Upload Photos

1,736,522 photos uploaded!

Nearby

Snow Depth

Station Depth Elevation
No new snow has been reported.

Earthquake Activity

City Distance Mag. Time & Date
No recent earthquake activity has been reported nearby.
Minimum magnitude displayed is 2.5.

Coastal Water Temperatures

Place Temperature
No Stations Reporting

Nearby Weather Stations

Station Location Temp. Dew Point Humidity Wind Precip. Elev Updated Type
Panhandle Coop/Box Butte Co, Alliance, NE 69.2 °F 62 °F 79% ENE  at  18.0 mph 0.00 in / hr 4140 ft 12:37 AM MDT Normal
Wayne Rd., Alliance, NE 69.2 °F 62 °F 79% SE  at  15.0 mph 0.00 in / hr 4091 ft 12:38 AM MDT Normal

Show More Stations Show Fewer Stations